Time;durP1;ratioP1;P1;durP2;ratioP2;P2;SDS_P1;SDS_P2;PMS_P1;PMS_P2;Temp;Humidity;BMP_temperature;BMP_pressure;BME280_temperature;BME280_humidity;BME280_pressure;Samples;Min_cycle;Max_cycle;Signal;HPM_P1;HPM_P2
2022/03/23 00:00:02;;;;;;;8.88;7.78;;;7.60;42.30;;;;;;650104;221;27204;-63
2022/03/23 00:02:29;;;;;;;10.23;7.82;;;7.60;42.30;;;;;;626201;230;26566;-61
2022/03/23 00:04:56;;;;;;;9.02;7.87;;;7.60;42.40;;;;;;650091;221;27201;-60
2022/03/23 00:07:24;;;;;;;8.75;7.70;;;7.60;42.50;;;;;;626176;230;26619;-60
2022/03/23 00:09:52;;;;;;;8.75;7.82;;;7.60;42.50;;;;;;650122;221;26536;-60
2022/03/23 00:12:20;;;;;;;9.95;7.78;;;7.50;42.50;;;;;;626203;230;26603;-62
2022/03/23 00:14:47;;;;;;;7.70;6.90;;;7.50;42.50;;;;;;649766;221;26817;-61
2022/03/23 00:17:14;;;;;;;9.07;7.68;;;7.50;42.40;;;;;;637723;225;26522;-61
2022/03/23 00:19:42;;;;;;;8.32;7.18;;;7.50;42.50;;;;;;649852;221;27086;-61
2022/03/23 00:22:11;;;;;;;8.50;7.70;;;7.50;42.80;;;;;;625890;230;26649;-61
2022/03/23 00:24:37;;;;;;;8.65;7.75;;;7.50;43.00;;;;;;649694;221;26531;-61
2022/03/23 00:27:06;;;;;;;9.65;8.20;;;7.40;43.00;;;;;;637701;225;26522;-61
2022/03/23 00:29:33;;;;;;;8.55;6.93;;;7.40;43.00;;;;;;649671;221;26783;-61
2022/03/23 00:32:00;;;;;;;8.35;6.97;;;7.40;43.10;;;;;;623958;229;26559;-62
2022/03/23 00:34:27;;;;;;;8.73;7.20;;;7.30;43.40;;;;;;649738;221;26755;-61
2022/03/23 00:36:54;;;;;;;7.70;6.80;;;7.30;43.70;;;;;;625839;230;26597;-60
2022/03/23 00:39:22;;;;;;;8.95;7.25;;;7.30;43.70;;;;;;649841;221;26845;-60
2022/03/23 00:41:50;;;;;;;9.07;7.65;;;7.20;44.00;;;;;;637707;225;26507;-60
2022/03/23 00:44:16;;;;;;;8.40;7.55;;;7.20;44.00;;;;;;649728;221;26555;-60
2022/03/23 00:46:44;;;;;;;7.82;7.07;;;7.20;44.20;;;;;;637720;225;26520;-60
2022/03/23 00:49:11;;;;;;;7.50;6.80;;;7.20;44.30;;;;;;650819;219;26805;-61
2022/03/23 00:51:38;;;;;;;7.93;6.85;;;7.20;44.50;;;;;;627225;229;26562;-61
2022/03/23 00:54:05;;;;;;;7.70;6.90;;;7.10;44.60;;;;;;650853;221;26558;-60
2022/03/23 00:56:33;;;;;;;8.10;6.95;;;7.10;44.60;;;;;;638676;225;26548;-60
2022/03/23 00:59:01;;;;;;;6.68;6.07;;;7.10;44.70;;;;;;650543;221;26552;-60
2022/03/23 01:01:29;;;;;;;7.62;6.82;;;7.00;45.10;;;;;;638336;225;26551;-60
2022/03/23 01:03:57;;;;;;;7.50;6.80;;;7.00;44.70;;;;;;650439;221;26818;-60
2022/03/23 01:06:24;;;;;;;8.23;7.22;;;7.00;44.70;;;;;;638354;225;26739;-60
2022/03/23 01:08:51;;;;;;;7.18;6.47;;;7.00;44.80;;;;;;650144;221;26503;-60
2022/03/23 01:11:18;;;;;;;8.10;7.30;;;7.00;44.80;;;;;;626112;230;26604;-60
2022/03/23 01:13:46;;;;;;;7.75;6.97;;;6.90;44.90;;;;;;650126;221;26504;-60
2022/03/23 01:16:15;;;;;;;8.55;6.62;;;6.90;44.90;;;;;;638095;225;26488;-60
2022/03/23 01:18:42;;;;;;;6.70;6.00;;;6.90;45.00;;;;;;650130;221;26530;-60
2022/03/23 01:21:10;;;;;;;8.20;6.65;;;6.90;45.00;;;;;;626219;230;26651;-60
2022/03/23 01:23:38;;;;;;;8.75;7.47;;;6.80;44.90;;;;;;650212;221;26528;-60
2022/03/23 01:26:05;;;;;;;7.28;6.37;;;6.80;45.00;;;;;;637736;225;26761;-60
2022/03/23 01:28:32;;;;;;;7.68;6.97;;;6.90;44.90;;;;;;649724;221;26515;-60
2022/03/23 01:31:00;;;;;;;6.95;6.25;;;6.90;44.90;;;;;;625880;230;26909;-60
2022/03/23 01:33:26;;;;;;;8.00;7.20;;;6.90;45.00;;;;;;649819;221;26526;-64
2022/03/23 01:35:54;;;;;;;7.95;6.70;;;6.80;45.10;;;;;;637670;225;26532;-64
2022/03/23 01:38:21;;;;;;;7.35;6.50;;;6.80;45.20;;;;;;649733;221;26548;-64
2022/03/23 01:40:49;;;;;;;7.45;6.75;;;6.80;45.20;;;;;;637687;225;26538;-64
2022/03/23 01:43:16;;;;;;;7.30;6.10;;;6.70;45.30;;;;;;649835;221;26517;-64
2022/03/23 01:45:45;;;;;;;7.65;6.80;;;6.70;45.50;;;;;;637667;225;26556;-64
2022/03/23 01:48:13;;;;;;;6.60;5.97;;;6.70;45.60;;;;;;649815;221;26566;-64
2022/03/23 01:50:40;;;;;;;6.93;6.32;;;6.60;45.50;;;;;;637747;225;26511;-64
2022/03/23 01:53:07;;;;;;;6.85;6.22;;;6.60;45.50;;;;;;649749;221;26502;-64
2022/03/23 01:55:34;;;;;;;7.28;6.57;;;6.60;45.70;;;;;;637680;225;26775;-65
2022/03/23 01:58:01;;;;;;;6.80;6.00;;;6.60;45.60;;;;;;649794;221;26547;-65
2022/03/23 02:14:14;;;;;;;6.68;6.00;;;6.50;46.10;;;;;;644636;221;26771;-65
2022/03/23 02:16:44;;;;;;;6.85;6.15;;;6.50;46.10;;;;;;638746;225;26465;-65
2022/03/23 02:19:12;;;;;;;7.47;6.78;;;6.50;46.10;;;;;;638476;225;26794;-65
2022/03/23 02:21:45;;;;;;;6.78;6.07;;;6.50;46.10;;;;;;640420;224;26560;-64
2022/03/23 02:24:13;;;;;;;6.78;6.18;;;6.50;46.10;;;;;;640350;224;26573;-64
2022/03/23 02:26:40;;;;;;;7.00;6.40;;;6.60;46.20;;;;;;638395;225;26540;-64
2022/03/23 02:29:08;;;;;;;6.75;6.15;;;6.50;46.30;;;;;;638438;225;26589;-64
2022/03/23 02:31:35;;;;;;;6.62;6.03;;;6.50;46.30;;;;;;638440;225;26590;-64
2022/03/23 02:34:02;;;;;;;7.22;6.53;;;6.50;46.30;;;;;;640422;224;26587;-64
2022/03/23 02:36:30;;;;;;;6.47;5.87;;;6.50;46.30;;;;;;640330;224;26785;-63
2022/03/23 02:38:56;;;;;;;6.93;6.32;;;6.50;46.30;;;;;;638036;225;26496;-64
2022/03/23 02:41:23;;;;;;;6.62;6.03;;;6.50;46.40;;;;;;638084;225;26488;-64
2022/03/23 02:43:51;;;;;;;6.78;6.18;;;6.50;46.60;;;;;;638059;225;26504;-64
2022/03/23 02:46:19;;;;;;;6.45;5.85;;;6.40;46.60;;;;;;638054;225;26540;-63
2022/03/23 02:48:47;;;;;;;6.10;5.60;;;6.40;46.60;;;;;;638406;225;26723;-63
2022/03/23 02:51:14;;;;;;;6.97;6.28;;;6.40;46.80;;;;;;640314;225;26476;-64
2022/03/23 03:04:14;;;;;;;6.82;6.22;;;6.20;47.50;;;;;;638536;224;26480;-64
2022/03/23 03:06:41;;;;;;;6.82;6.22;;;6.20;47.60;;;;;;640480;225;26477;-64
2022/03/23 03:09:08;;;;;;;6.82;5.75;;;6.20;47.60;;;;;;640485;225;26517;-65
2022/03/23 03:11:36;;;;;;;6.28;5.68;;;6.20;47.70;;;;;;640815;222;26486;-64
2022/03/23 03:14:03;;;;;;;7.10;6.40;;;6.10;47.70;;;;;;640005;225;26759;-65
2022/03/23 03:16:30;;;;;;;6.80;6.20;;;6.10;47.90;;;;;;639658;224;26504;-65
2022/03/23 03:18:58;;;;;;;6.03;5.53;;;6.20;48.00;;;;;;639433;224;26518;-63
2022/03/23 03:21:25;;;;;;;8.77;5.87;;;6.10;48.10;;;;;;639055;225;26450;-66
2022/03/23 03:23:53;;;;;;;7.28;5.65;;;6.10;48.40;;;;;;638752;224;26509;-65
2022/03/23 03:26:20;;;;;;;6.35;5.75;;;6.10;48.40;;;;;;638665;225;26897;-66
2022/03/23 03:28:50;;;;;;;6.32;5.70;;;6.00;49.10;;;;;;638724;225;26505;-66
2022/03/23 03:31:15;;;;;;;6.32;5.72;;;6.00;49.00;;;;;;638406;224;26779;-66
2022/03/23 03:33:42;;;;;;;6.47;5.68;;;5.90;49.40;;;;;;640290;224;26525;-65
2022/03/23 03:36:10;;;;;;;6.18;5.62;;;5.80;49.70;;;;;;640379;224;26574;-66
2022/03/23 03:38:39;;;;;;;7.00;5.78;;;5.80;49.70;;;;;;638414;225;26579;-66
2022/03/23 03:41:07;;;;;;;7.18;5.70;;;5.80;49.70;;;;;;638496;225;26768;-66
2022/03/23 03:43:34;;;;;;;6.43;5.82;;;5.80;49.90;;;;;;638489;225;26486;-65
2022/03/23 03:46:01;;;;;;;8.05;6.37;;;5.70;50.50;;;;;;638442;225;26851;-66
2022/03/23 03:48:29;;;;;;;6.45;5.57;;;5.60;50.00;;;;;;638197;225;26567;-66
2022/03/23 03:50:56;;;;;;;5.47;5.00;;;5.60;50.10;;;;;;640215;225;26475;-66
2022/03/23 03:53:23;;;;;;;6.37;5.78;;;5.60;50.20;;;;;;640046;225;26730;-64
2022/03/23 03:55:51;;;;;;;6.32;5.72;;;5.50;50.30;;;;;;638049;225;26536;-65
2022/03/23 03:58:18;;;;;;;5.82;5.22;;;5.50;50.30;;;;;;640100;224;26495;-65
2022/03/23 04:00:46;;;;;;;6.18;5.60;;;5.40;50.40;;;;;;638082;225;26501;-65
2022/03/23 04:03:14;;;;;;;6.25;5.65;;;5.40;50.50;;;;;;638067;225;26532;-65
2022/03/23 04:05:42;;;;;;;6.65;5.75;;;5.30;50.20;;;;;;638057;225;26756;-66
2022/03/23 04:08:09;;;;;;;6.95;5.68;;;5.30;50.50;;;;;;638044;225;26540;-66
2022/03/23 04:10:37;;;;;;;6.53;5.93;;;5.30;50.60;;;;;;638049;225;26509;-66
2022/03/23 04:13:04;;;;;;;6.43;5.82;;;5.30;51.10;;;;;;638067;225;26496;-66
2022/03/23 04:15:31;;;;;;;5.85;5.35;;;5.30;50.80;;;;;;640056;224;27182;-66
2022/03/23 04:17:58;;;;;;;6.10;5.50;;;5.40;50.70;;;;;;640128;225;26509;-66
2022/03/23 04:20:26;;;;;;;6.37;5.57;;;5.40;50.70;;;;;;640137;225;26532;-65
2022/03/23 04:22:53;;;;;;;6.20;5.60;;;5.40;50.70;;;;;;638071;225;26739;-65
2022/03/23 04:25:20;;;;;;;6.32;5.82;;;5.40;50.70;;;;;;639867;224;26579;-65
2022/03/23 04:27:48;;;;;;;5.87;5.37;;;5.30;50.70;;;;;;639286;224;26825;-65
2022/03/23 04:30:17;;;;;;;5.80;5.25;;;5.30;50.90;;;;;;639403;224;26524;-66
2022/03/23 04:32:46;;;;;;;5.95;5.22;;;5.20;50.80;;;;;;639194;225;26489;-66
2022/03/23 04:35:14;;;;;;;5.82;5.30;;;5.20;50.80;;;;;;641093;224;26569;-66
2022/03/23 04:37:40;;;;;;;6.37;5.82;;;5.20;50.80;;;;;;641053;224;26468;-66
2022/03/23 04:40:08;;;;;;;6.18;5.60;;;5.20;50.90;;;;;;639119;224;26724;-66
2022/03/23 04:42:35;;;;;;;5.62;5.12;;;5.10;51.00;;;;;;638889;224;26494;-66
2022/03/23 04:45:02;;;;;;;5.97;5.35;;;5.10;51.10;;;;;;638776;225;26553;-66
2022/03/23 04:47:30;;;;;;;6.78;5.43;;;5.00;51.00;;;;;;638780;225;26514;-65
2022/03/23 04:49:58;;;;;;;5.72;5.22;;;5.00;51.00;;;;;;638787;225;26564;-66
2022/03/23 04:52:25;;;;;;;5.70;5.20;;;5.00;51.10;;;;;;638615;225;26527;-67
2022/03/23 04:54:56;;;;;;;5.35;4.85;;;5.00;51.10;;;;;;640377;224;26899;-65
2022/03/23 04:57:20;;;;;;;6.18;5.68;;;4.90;51.20;;;;;;640166;224;26555;-66
2022/03/23 04:59:47;;;;;;;5.95;5.37;;;5.00;51.00;;;;;;638201;225;26548;-65
2022/03/23 05:02:14;;;;;;;6.15;5.55;;;5.00;51.10;;;;;;640065;225;26509;-68
2022/03/23 05:04:41;;;;;;;6.20;5.50;;;5.00;51.00;;;;;;640058;225;26746;-66
2022/03/23 05:07:08;;;;;;;6.00;5.47;;;5.00;51.00;;;;;;638040;225;26489;-67
2022/03/23 05:09:36;;;;;;;5.80;5.30;;;5.00;51.10;;;;;;638022;225;26509;-67
2022/03/23 05:12:04;;;;;;;6.00;5.50;;;4.80;51.70;;;;;;638064;225;26509;-68
2022/03/23 05:14:31;;;;;;;5.97;5.37;;;4.80;51.70;;;;;;638006;225;26532;-66
2022/03/23 05:16:59;;;;;;;5.82;5.30;;;4.80;51.80;;;;;;638035;225;27129;-66
2022/03/23 05:19:26;;;;;;;6.37;5.78;;;4.80;51.70;;;;;;638044;225;26501;-67
2022/03/23 05:21:53;;;;;;;6.53;5.82;;;4.70;51.80;;;;;;638038;225;26505;-66
2022/03/23 05:24:21;;;;;;;7.00;5.57;;;4.80;51.60;;;;;;638027;225;26478;-66
2022/03/23 05:26:48;;;;;;;8.18;5.82;;;4.70;51.50;;;;;;640116;225;26525;-66
2022/03/23 05:29:15;;;;;;;5.72;5.22;;;4.80;53.50;;;;;;640080;225;26538;-66
2022/03/23 05:31:43;;;;;;;6.28;5.68;;;5.00;53.20;;;;;;640106;225;26596;-67
2022/03/23 05:34:10;;;;;;;6.03;5.53;;;5.00;51.90;;;;;;638072;225;26575;-66
2022/03/23 05:36:38;;;;;;;6.22;5.60;;;5.20;54.50;;;;;;641839;222;26775;-66
2022/03/23 05:39:05;;;;;;;6.87;5.60;;;5.20;52.80;;;;;;641347;224;26504;-67
2022/03/23 05:41:33;;;;;;;6.50;5.90;;;5.20;52.80;;;;;;639048;225;26755;-67
2022/03/23 05:44:00;;;;;;;5.45;5.05;;;5.20;51.70;;;;;;638920;225;26885;-66
2022/03/23 05:46:28;;;;;;;5.95;5.45;;;5.10;51.50;;;;;;639067;224;26514;-67
2022/03/23 05:48:55;;;;;;;6.18;5.68;;;5.10;51.50;;;;;;641154;224;26463;-66
2022/03/23 05:51:23;;;;;;;6.07;5.57;;;5.10;51.60;;;;;;641117;224;26963;-66
2022/03/23 05:53:49;;;;;;;5.72;5.22;;;5.10;51.50;;;;;;638838;225;26469;-66
2022/03/23 05:56:17;;;;;;;5.50;5.00;;;5.20;51.70;;;;;;640755;224;26806;-66
2022/03/23 05:58:44;;;;;;;6.28;5.68;;;5.30;51.50;;;;;;640808;224;26757;-66
2022/03/23 06:01:11;;;;;;;6.30;5.70;;;5.30;51.50;;;;;;638800;225;26525;-67
2022/03/23 06:03:39;;;;;;;5.93;5.32;;;5.30;51.40;;;;;;638784;225;26509;-67
2022/03/23 06:06:08;;;;;;;5.50;5.00;;;5.40;51.50;;;;;;638758;225;26562;-66
2022/03/23 06:08:34;;;;;;;5.85;5.20;;;5.50;51.40;;;;;;638668;225;26516;-66
2022/03/23 06:11:02;;;;;;;6.03;5.43;;;5.50;51.40;;;;;;640690;224;26715;-67
2022/03/23 06:13:29;;;;;;;5.95;5.37;;;5.50;51.30;;;;;;640498;225;26483;-67
2022/03/23 06:15:56;;;;;;;6.40;5.80;;;5.50;51.30;;;;;;640411;225;27140;-66
2022/03/23 06:18:23;;;;;;;6.07;5.53;;;5.60;51.30;;;;;;638094;225;26496;-66
2022/03/23 06:20:51;;;;;;;6.22;5.45;;;5.70;51.30;;;;;;638148;225;26501;-66
2022/03/23 06:23:18;;;;;;;10.32;5.53;;;5.80;50.90;;;;;;638088;225;26496;-67
2022/03/23 06:25:46;;;;;;;6.43;5.35;;;5.80;50.90;;;;;;638034;225;26532;-66
2022/03/23 06:28:13;;;;;;;5.93;5.37;;;6.00;50.80;;;;;;638100;225;26500;-65
2022/03/23 06:30:41;;;;;;;7.40;5.10;;;6.00;50.50;;;;;;638059;225;26729;-66
2022/03/23 06:33:08;;;;;;;6.22;5.62;;;6.00;50.50;;;;;;638149;225;26718;-65
2022/03/23 06:35:36;;;;;;;5.70;5.12;;;6.20;50.30;;;;;;638033;225;26529;-65
2022/03/23 06:38:04;;;;;;;7.03;5.47;;;6.30;50.10;;;;;;637998;225;26519;-65
2022/03/23 06:40:31;;;;;;;5.93;5.43;;;6.30;50.10;;;;;;638035;225;26510;-66
2022/03/23 06:42:58;;;;;;;5.28;4.78;;;6.40;50.00;;;;;;638058;225;26489;-67
2022/03/23 06:45:25;;;;;;;7.00;5.80;;;6.50;49.70;;;;;;638058;225;26768;-67
2022/03/23 06:47:53;;;;;;;6.45;5.47;;;6.60;49.70;;;;;;639563;223;26549;-66
2022/03/23 06:50:20;;;;;;;6.65;5.62;;;6.70;49.60;;;;;;639359;225;26778;-66
2022/03/23 06:52:48;;;;;;;6.68;6.03;;;6.90;49.40;;;;;;638997;224;26636;-67
2022/03/23 06:55:16;;;;;;;6.60;5.57;;;7.00;49.30;;;;;;638977;224;26572;-66
2022/03/23 06:57:43;;;;;;;7.12;5.75;;;7.00;49.30;;;;;;638695;224;26510;-67
2022/03/23 07:00:13;;;;;;;6.90;6.12;;;7.10;49.20;;;;;;638884;221;26505;-67
2022/03/23 07:02:42;;;;;;;6.90;5.97;;;7.20;49.20;;;;;;642357;220;26735;-67
2022/03/23 07:05:10;;;;;;;7.15;6.00;;;7.30;49.00;;;;;;646637;221;26797;-66
2022/03/23 07:07:38;;;;;;;6.62;6.00;;;7.50;48.50;;;;;;618996;230;26547;-68
2022/03/23 07:10:06;;;;;;;9.23;6.53;;;7.50;48.50;;;;;;646954;221;26500;-67
2022/03/23 07:12:33;;;;;;;6.40;5.78;;;7.60;48.30;;;;;;647211;221;26766;-67
2022/03/23 07:15:00;;;;;;;7.45;5.93;;;7.70;48.20;;;;;;629076;225;26574;-67
2022/03/23 07:17:27;;;;;;;6.45;5.68;;;7.80;48.00;;;;;;635861;226;26473;-67
2022/03/23 07:19:55;;;;;;;6.90;5.60;;;8.00;47.30;;;;;;619282;231;26478;-66
2022/03/23 07:22:22;;;;;;;9.18;6.22;;;8.00;47.30;;;;;;629360;227;26520;-67
2022/03/23 07:24:51;;;;;;;6.82;5.95;;;8.10;47.40;;;;;;628099;228;26789;-67
2022/03/23 07:27:17;;;;;;;8.02;6.40;;;8.30;47.10;;;;;;622618;230;26603;-67
2022/03/23 07:29:45;;;;;;;64.80;18.02;;;8.30;47.10;;;;;;646024;221;26755;-67
2022/03/23 07:32:12;;;;;;;103.78;25.40;;;8.30;46.90;;;;;;643158;221;26500;-67
2022/03/23 07:34:39;;;;;;;664.53;79.68;;;8.40;46.80;;;;;;627098;229;26844;-65
2022/03/23 07:37:06;;;;;;;130.87;26.92;;;8.40;46.60;;;;;;625030;230;26596;-68
2022/03/23 07:39:34;;;;;;;117.35;25.40;;;8.50;46.50;;;;;;636683;225;26802;-66
2022/03/23 07:42:02;;;;;;;104.68;24.60;;;8.60;46.40;;;;;;637927;225;26543;-67
2022/03/23 07:44:28;;;;;;;99.05;23.92;;;8.70;46.40;;;;;;646554;221;26576;-67
2022/03/23 07:46:55;;;;;;;97.37;22.50;;;8.70;46.50;;;;;;639059;222;26725;-67
2022/03/23 07:49:23;;;;;;;92.20;20.80;;;9.00;46.40;;;;;;638039;223;26509;-67
2022/03/23 07:51:51;;;;;;;66.70;19.62;;;9.00;46.80;;;;;;642927;221;26518;-66
2022/03/23 07:54:18;;;;;;;54.45;16.50;;;9.00;46.50;;;;;;649762;221;26593;-67
2022/03/23 07:56:46;;;;;;;43.63;15.93;;;9.10;46.20;;;;;;639466;221;26504;-66
2022/03/23 07:59:14;;;;;;;48.20;16.75;;;9.20;46.00;;;;;;639060;223;26543;-66
2022/03/23 08:01:42;;;;;;;44.42;15.57;;;9.30;45.80;;;;;;639366;225;26503;-67
2022/03/23 08:04:11;;;;;;;24.20;10.75;;;9.40;45.70;;;;;;639001;225;26556;-68
2022/03/23 08:06:37;;;;;;;16.08;8.57;;;9.40;45.70;;;;;;634906;223;26582;-67
2022/03/23 08:09:05;;;;;;;13.80;8.65;;;9.50;45.50;;;;;;633780;225;26560;-66
2022/03/23 08:11:32;;;;;;;15.82;8.55;;;9.60;45.50;;;;;;638621;225;26738;-66
2022/03/23 08:13:59;;;;;;;16.87;8.82;;;9.60;45.00;;;;;;638468;225;26528;-66
2022/03/23 08:16:27;;;;;;;17.85;8.95;;;9.70;44.80;;;;;;647235;221;26840;-66
2022/03/23 08:18:53;;;;;;;13.05;8.27;;;9.80;44.70;;;;;;649359;221;26535;-67
2022/03/23 08:21:21;;;;;;;12.50;8.60;;;9.90;45.10;;;;;;637987;225;26464;-65
2022/03/23 08:23:48;;;;;;;13.70;9.05;;;10.10;43.80;;;;;;640310;221;26571;-66
2022/03/23 08:26:17;;;;;;;16.27;8.45;;;10.20;43.50;;;;;;638074;225;26585;-67
2022/03/23 08:28:44;;;;;;;18.00;8.23;;;10.30;43.30;;;;;;638305;225;26573;-68
2022/03/23 08:31:12;;;;;;;13.38;8.52;;;10.30;43.50;;;;;;638242;225;26566;-67
2022/03/23 08:33:40;;;;;;;11.50;8.50;;;10.40;43.10;;;;;;637978;225;26561;-67
2022/03/23 08:36:08;;;;;;;14.93;8.98;;;10.50;43.00;;;;;;637619;225;26553;-67
2022/03/23 08:38:36;;;;;;;12.37;7.35;;;10.50;43.00;;;;;;637696;225;26504;-68
2022/03/23 08:41:03;;;;;;;12.13;8.10;;;10.70;42.80;;;;;;637659;224;26500;-66
2022/03/23 08:43:31;;;;;;;9.95;7.95;;;10.60;42.70;;;;;;639689;224;26512;-67
2022/03/23 08:45:59;;;;;;;11.77;7.70;;;10.80;42.60;;;;;;639618;225;26553;-68
2022/03/23 08:48:26;;;;;;;11.98;7.72;;;10.80;42.40;;;;;;638078;225;27356;-67
2022/03/23 08:50:52;;;;;;;11.60;8.35;;;10.80;42.40;;;;;;638090;225;26504;-67
2022/03/23 08:53:20;;;;;;;12.57;7.97;;;11.00;42.60;;;;;;638093;225;26729;-67
2022/03/23 08:55:47;;;;;;;11.35;7.72;;;11.10;42.30;;;;;;640013;224;26520;-67
2022/03/23 08:58:15;;;;;;;10.95;7.78;;;11.10;42.20;;;;;;640086;225;26570;-67
2022/03/23 09:00:42;;;;;;;10.50;7.70;;;11.20;42.00;;;;;;638149;225;26508;-66
2022/03/23 09:03:09;;;;;;;9.45;7.28;;;11.30;42.00;;;;;;638165;225;26767;-66
2022/03/23 09:05:37;;;;;;;11.70;7.93;;;11.40;41.70;;;;;;638141;225;26508;-66
2022/03/23 09:08:04;;;;;;;9.93;7.43;;;11.40;41.50;;;;;;638154;225;26723;-66
2022/03/23 09:10:31;;;;;;;9.85;6.87;;;11.50;41.30;;;;;;639229;223;26781;-66
2022/03/23 09:12:58;;;;;;;9.75;6.93;;;11.60;41.10;;;;;;639479;224;26508;-66
2022/03/23 09:15:26;;;;;;;11.27;7.55;;;11.70;41.10;;;;;;639107;224;26645;-66
2022/03/23 09:17:52;;;;;;;11.63;7.22;;;11.80;41.00;;;;;;639096;225;26530;-66
2022/03/23 09:20:20;;;;;;;9.20;7.10;;;11.90;40.80;;;;;;638400;225;26801;-65
2022/03/23 09:22:48;;;;;;;8.90;6.62;;;12.20;40.50;;;;;;640718;224;26495;-66
2022/03/23 09:25:17;;;;;;;8.60;7.25;;;12.20;40.50;;;;;;640723;224;26526;-66
2022/03/23 09:27:44;;;;;;;8.07;6.90;;;12.30;39.90;;;;;;638584;224;26501;-64
2022/03/23 09:30:13;;;;;;;10.77;7.12;;;12.30;40.20;;;;;;638441;225;26536;-64
2022/03/23 09:32:40;;;;;;;8.05;6.18;;;12.40;40.00;;;;;;638327;225;26595;-64
2022/03/23 09:35:08;;;;;;;10.23;7.57;;;12.50;40.00;;;;;;640302;224;26567;-64
2022/03/23 09:40:09;;;;;;;8.13;7.32;;;12.60;40.30;;;;;;640451;224;26551;-64
2022/03/23 09:42:38;;;;;;;8.05;6.62;;;13.10;40.20;;;;;;640810;224;26565;-64
2022/03/23 09:45:05;;;;;;;10.02;7.45;;;13.50;39.80;;;;;;638707;225;26766;-64
2022/03/23 09:47:32;;;;;;;9.85;7.18;;;13.50;39.30;;;;;;638512;221;26475;-64
2022/03/23 09:50:00;;;;;;;9.65;6.95;;;13.20;39.50;;;;;;641511;221;26508;-64
2022/03/23 09:52:28;;;;;;;8.65;6.30;;;13.20;39.50;;;;;;650659;221;26511;-64
2022/03/23 09:54:55;;;;;;;9.23;7.43;;;13.20;39.50;;;;;;636757;225;26725;-63
2022/03/23 09:57:22;;;;;;;8.68;7.32;;;13.20;39.50;;;;;;633308;224;26555;-65
2022/03/23 09:59:50;;;;;;;9.35;7.65;;;13.20;39.20;;;;;;634575;225;26802;-64
2022/03/23 10:02:39;;;;;;;8.07;7.12;;;13.20;39.20;;;;;;629709;225;26837;-65
2022/03/23 10:05:18;;;;;;;8.98;7.22;;;13.30;39.20;;;;;;626378;225;26495;-64
2022/03/23 10:07:45;;;;;;;8.00;7.03;;;13.40;39.40;;;;;;652771;220;26519;-64
2022/03/23 10:10:34;;;;;;;7.80;7.03;;;13.50;39.70;;;;;;652350;220;26776;-65
2022/03/23 10:13:09;;;;;;;9.48;7.47;;;13.50;39.30;;;;;;638709;224;26498;-64
2022/03/23 10:15:48;;;;;;;8.35;6.78;;;13.70;38.50;;;;;;652524;220;26583;-64
2022/03/23 10:18:38;;;;;;;8.15;7.15;;;13.80;38.30;;;;;;639214;225;26748;-65
2022/03/23 10:21:05;;;;;;;7.45;6.72;;;13.90;38.60;;;;;;652174;218;26550;-65
2022/03/23 10:23:33;;;;;;;7.22;6.43;;;13.90;38.20;;;;;;654368;219;26530;-66
2022/03/23 10:26:15;;;;;;;8.95;7.10;;;13.90;38.10;;;;;;653936;220;26589;-66
2022/03/23 10:28:43;;;;;;;7.90;7.10;;;13.90;38.00;;;;;;653672;220;26577;-64
2022/03/23 10:31:15;;;;;;;8.00;7.18;;;14.00;38.00;;;;;;627164;229;26552;-64
2022/03/23 10:33:42;;;;;;;8.32;7.00;;;14.00;37.60;;;;;;627442;229;26544;-64
2022/03/23 10:36:11;;;;;;;8.05;6.87;;;14.10;38.00;;;;;;640017;225;26538;-64
2022/03/23 10:38:37;;;;;;;7.82;6.62;;;14.20;37.50;;;;;;653253;220;26576;-65
2022/03/23 10:41:08;;;;;;;10.45;7.10;;;14.20;37.60;;;;;;653082;220;26522;-64
2022/03/23 10:43:35;;;;;;;9.60;7.12;;;14.20;37.60;;;;;;639489;225;26451;-65
2022/03/23 10:46:08;;;;;;;7.03;6.05;;;14.50;37.10;;;;;;652971;220;26543;-64
2022/03/23 10:48:36;;;;;;;10.85;7.05;;;14.60;36.80;;;;;;653073;220;26525;-64
2022/03/23 10:51:04;;;;;;;7.03;6.32;;;14.70;36.50;;;;;;639570;224;26459;-64
2022/03/23 10:53:32;;;;;;;7.10;6.25;;;14.70;36.50;;;;;;653081;220;26518;-64
2022/03/23 10:56:00;;;;;;;7.93;7.12;;;14.80;36.80;;;;;;652972;220;26534;-64
2022/03/23 10:58:27;;;;;;;7.10;6.35;;;14.80;36.50;;;;;;652853;220;26898;-65
2022/03/23 11:00:54;;;;;;;8.82;7.05;;;14.80;36.80;;;;;;652703;220;26557;-64
2022/03/23 11:03:21;;;;;;;7.75;6.40;;;14.90;36.20;;;;;;639169;225;26956;-65
2022/03/23 11:05:49;;;;;;;8.00;7.20;;;14.90;36.00;;;;;;652571;220;26579;-65
2022/03/23 11:08:18;;;;;;;8.20;7.18;;;15.00;35.80;;;;;;652715;220;26603;-68
2022/03/23 11:16:00;;;;;;;17.27;7.70;;;15.20;35.60;;;;;;652702;220;26609;-70
2022/03/23 11:18:28;;;;;;;9.85;7.22;;;15.40;35.30;;;;;;626484;229;26548;-75
2022/03/23 11:20:56;;;;;;;17.70;7.60;;;15.40;35.10;;;;;;626473;229;26568;-70
2022/03/23 11:23:26;;;;;;;16.75;8.13;;;15.50;35.10;;;;;;626476;229;26565;-71
2022/03/23 11:25:55;;;;;;;17.73;7.93;;;15.40;35.10;;;;;;626121;229;26596;-71
2022/03/23 11:28:23;;;;;;;17.17;7.85;;;15.50;35.50;;;;;;626438;229;26914;-72
2022/03/23 11:30:50;;;;;;;15.43;7.72;;;15.60;35.60;;;;;;626480;229;26839;-71
2022/03/23 11:33:18;;;;;;;13.48;7.22;;;15.60;35.90;;;;;;627205;227;26555;-71
2022/03/23 11:35:47;;;;;;;15.70;7.62;;;15.60;35.80;;;;;;627747;229;26953;-71
2022/03/23 11:38:13;;;;;;;17.20;8.10;;;15.70;35.80;;;;;;640185;224;26688;-71
2022/03/23 11:40:41;;;;;;;14.50;7.10;;;15.70;35.50;;;;;;653755;220;26593;-71
2022/03/23 11:43:09;;;;;;;12.50;7.30;;;15.80;35.20;;;;;;653505;220;26552;-71
2022/03/23 11:45:36;;;;;;;10.88;7.62;;;15.80;34.90;;;;;;639509;225;26760;-71
2022/03/23 11:48:03;;;;;;;11.95;7.12;;;15.90;35.40;;;;;;653395;220;26661;-71
2022/03/23 11:50:31;;;;;;;8.90;6.62;;;16.00;35.30;;;;;;626497;229;27365;-70
2022/03/23 11:53:02;;;;;;;10.43;7.22;;;16.00;35.70;;;;;;626831;229;26576;-70
2022/03/23 11:58:03;;;;;;;13.25;7.07;;;16.10;35.60;;;;;;627184;229;26580;-70
2022/03/23 12:00:45;;;;;;;8.05;6.78;;;16.30;35.70;;;;;;626918;229;26557;-70
2022/03/23 12:03:12;;;;;;;9.00;6.40;;;16.30;36.30;;;;;;627170;229;26552;-70
2022/03/23 12:05:48;;;;;;;11.02;6.78;;;16.40;36.20;;;;;;626864;229;26855;-70
2022/03/23 12:08:15;;;;;;;9.45;6.32;;;16.60;36.60;;;;;;639542;225;26470;-70
2022/03/23 12:10:43;;;;;;;9.20;6.93;;;16.70;35.90;;;;;;650939;220;26540;-70
2022/03/23 12:13:16;;;;;;;9.73;6.37;;;16.60;35.30;;;;;;652693;220;26540;-70
2022/03/23 12:15:58;;;;;;;9.50;6.37;;;16.70;35.40;;;;;;639161;224;26503;-70
2022/03/23 12:18:41;;;;;;;10.30;6.87;;;16.70;35.30;;;;;;652674;220;26565;-69
2022/03/23 12:21:10;;;;;;;11.65;6.60;;;16.60;34.50;;;;;;626525;229;26556;-70
2022/03/23 12:23:44;;;;;;;8.45;6.40;;;16.70;33.90;;;;;;626319;229;26557;-70
2022/03/23 12:26:13;;;;;;;11.70;6.18;;;16.60;33.80;;;;;;626108;229;26870;-69
2022/03/23 12:28:46;;;;;;;8.90;6.15;;;16.70;33.80;;;;;;625958;229;26562;-70
2022/03/23 12:31:14;;;;;;;9.05;6.22;;;16.80;34.10;;;;;;626186;229;26556;-70
2022/03/23 12:33:59;;;;;;;7.18;6.40;;;16.90;33.70;;;;;;626308;229;26810;-69
2022/03/23 12:36:56;;;;;;;9.38;6.93;;;17.00;32.90;;;;;;638746;225;26515;-70
2022/03/23 12:39:00;;;;;;;9.35;6.68;;;17.00;33.40;;;;;;651339;220;26532;-69
2022/03/23 12:41:27;;;;;;;8.00;6.07;;;17.00;33.40;;;;;;652773;220;26552;-70
2022/03/23 12:43:54;;;;;;;9.50;6.68;;;17.00;33.90;;;;;;624849;229;26560;-70
2022/03/23 12:46:22;;;;;;;7.15;6.45;;;17.00;34.30;;;;;;628229;227;26851;-69
2022/03/23 12:59:17;;;;;;;8.93;6.55;;;17.10;34.50;;;;;;627099;229;26567;-69
2022/03/23 13:01:44;;;;;;;7.43;5.97;;;17.10;34.70;;;;;;627042;229;26556;-68
2022/03/23 13:04:32;;;;;;;6.70;6.03;;;17.30;34.50;;;;;;626674;229;27315;-68
2022/03/23 13:06:59;;;;;;;6.43;5.72;;;17.30;34.80;;;;;;625164;229;26622;-68
2022/03/23 13:09:27;;;;;;;7.85;5.50;;;17.40;34.40;;;;;;626823;229;26603;-69
2022/03/23 13:11:56;;;;;;;7.03;6.18;;;17.40;34.10;;;;;;626770;229;26618;-69
2022/03/23 13:14:24;;;;;;;7.28;6.25;;;17.40;34.10;;;;;;626696;229;26607;-68
2022/03/23 13:16:51;;;;;;;7.70;5.90;;;17.40;34.20;;;;;;639540;225;26466;-67
2022/03/23 13:19:19;;;;;;;6.30;5.65;;;17.40;34.30;;;;;;653067;220;26491;-67
2022/03/23 13:21:46;;;;;;;8.05;6.03;;;17.40;34.20;;;;;;653201;220;26533;-68
2022/03/23 13:24:13;;;;;;;6.72;5.65;;;17.50;33.90;;;;;;639413;225;26713;-68
2022/03/23 13:26:41;;;;;;;7.05;6.30;;;17.60;33.70;;;;;;652687;220;26557;-68
2022/03/23 13:29:08;;;;;;;10.13;6.05;;;17.50;33.60;;;;;;652746;220;26597;-68
2022/03/23 13:31:36;;;;;;;7.60;6.35;;;17.60;33.80;;;;;;652738;220;26534;-68
2022/03/23 13:34:04;;;;;;;9.00;6.15;;;17.70;33.00;;;;;;652604;220;26593;-68
2022/03/23 13:36:32;;;;;;;9.65;6.35;;;17.70;33.00;;;;;;652432;220;26574;-68
2022/03/23 13:39:01;;;;;;;7.70;6.20;;;17.70;32.90;;;;;;638872;225;26547;-68